Union Ranger — SYMB — position and weather

sailwx.info

Track history (hours):
 
Tides and Currents Weather Stations Pressure Air Temp Water Temp Dewpoint Dewpoint Depression Visibility Wind Speed Wind Dir Waves Ship Positions

Union Ranger

Last reported at 2017-Mar-22 23:33 UTC. Time now 2017-Mar-23 00:24 UTC.
Position N 36°02' W 005°08'.

Length 185 m; draft 10.2 m.

Type: Ship. MMSI: 240070000.

Date/timePositionNaut miles runAvg speedWind from/ knotsBaromVisibWave heightAir tempDewpointWater temp
2017-Mar-22 23:33N 36°02' W 005°08'1212.0
2017-Mar-22 22:33N 36°06' W 005°22'2 1.5
2017-Mar-22 21:31N 36°08' W 005°22'0 0.1
2017-Mar-22 20:31N 36°08' W 005°22'0 0.0
2017-Mar-22 19:31N 36°08' W 005°22'0 0.0
2017-Mar-22 18:31N 36°08' W 005°22'0 0.0
2017-Mar-22 17:31N 36°08' W 005°22'0 0.1
2017-Mar-22 16:31N 36°07' W 005°22'0 0.3
2017-Mar-22 15:33N 36°07' W 005°22'3 3.1
2017-Mar-22 14:33N 36°06' W 005°18'7 7.3
2017-Mar-22 13:33N 36°05' W 005°09'3 3.0
2017-Mar-22 12:31N 36°04' W 005°13'8 8.4
2017-Mar-22 11:33N 35°60' W 005°21'1111.1
2017-Mar-22 10:33N 35°56' W 005°34'  
Track history (hours):
 
Tides and Currents Weather Stations Pressure Air Temp Water Temp Dewpoint Dewpoint Depression Visibility Wind Speed Wind Dir Waves Ship Positions

Union Ranger

Last reported at 2017-Mar-22 23:33 UTC. Time now 2017-Mar-23 00:24 UTC.
Position N 36°02' W 005°08'.

Length 185 m; draft 10.2 m.

Type: Ship. MMSI: 240070000.

Date/timePositionNaut miles runAvg speedWind from/ knotsBaromVisibWave heightAir tempDewpointWater temp
2017-Mar-22 23:33N 36°02' W 005°08'1212.0
2017-Mar-22 22:33N 36°06' W 005°22'2 1.5
2017-Mar-22 21:31N 36°08' W 005°22'0 0.1
2017-Mar-22 20:31N 36°08' W 005°22'0 0.0
2017-Mar-22 19:31N 36°08' W 005°22'0 0.0
2017-Mar-22 18:31N 36°08' W 005°22'0 0.0
2017-Mar-22 17:31N 36°08' W 005°22'0 0.1
2017-Mar-22 16:31N 36°07' W 005°22'0 0.3
2017-Mar-22 15:33N 36°07' W 005°22'3 3.1
2017-Mar-22 14:33N 36°06' W 005°18'7 7.3
2017-Mar-22 13:33N 36°05' W 005°09'3 3.0
2017-Mar-22 12:31N 36°04' W 005°13'8 8.4
2017-Mar-22 11:33N 35°60' W 005°21'1111.1
2017-Mar-22 10:33N 35°56' W 005°34'  

Dump ship's entire track history